sensor_id;sensor_type;location;lat;lon;timestamp;P1;durP1;ratioP1;P2;durP2;ratioP2
75576;SDS011;64157;50.138;14.544;2022-10-16T00:29:53;4.80;;;4.07;;
75576;SDS011;64157;50.138;14.544;2022-10-16T00:47:06;4.90;;;4.13;;
75576;SDS011;64157;50.138;14.544;2022-10-16T01:49:43;5.45;;;4.63;;
75576;SDS011;64157;50.138;14.544;2022-10-16T01:52:57;7.15;;;4.70;;
75576;SDS011;64157;50.138;14.544;2022-10-16T03:38:16;2.90;;;2.40;;
75576;SDS011;64157;50.138;14.544;2022-10-16T03:44:32;7.00;;;3.33;;
75576;SDS011;64157;50.138;14.544;2022-10-16T03:47:47;3.13;;;2.93;;
75576;SDS011;64157;50.138;14.544;2022-10-16T07:52:09;4.65;;;2.88;;
75576;SDS011;64157;50.138;14.544;2022-10-16T07:54:36;6.72;;;2.42;;
75576;SDS011;64157;50.138;14.544;2022-10-16T07:57:11;3.00;;;2.70;;
75576;SDS011;64157;50.138;14.544;2022-10-16T07:59:43;2.90;;;2.47;;
75576;SDS011;64157;50.138;14.544;2022-10-16T08:09:19;3.13;;;2.47;;
75576;SDS011;64157;50.138;14.544;2022-10-16T08:11:47;4.35;;;3.10;;
75576;SDS011;64157;50.138;14.544;2022-10-16T08:27:44;3.00;;;2.60;;
75576;SDS011;64157;50.138;14.544;2022-10-16T08:33:29;2.67;;;2.47;;
75576;SDS011;64157;50.138;14.544;2022-10-16T08:40:14;3.17;;;2.22;;
75576;SDS011;64157;50.138;14.544;2022-10-16T08:48:29;11.57;;;2.97;;
75576;SDS011;64157;50.138;14.544;2022-10-16T08:58:15;7.30;;;2.97;;
75576;SDS011;64157;50.138;14.544;2022-10-16T09:01:11;2.10;;;1.90;;
75576;SDS011;64157;50.138;14.544;2022-10-16T10:29:06;2.70;;;1.08;;
75576;SDS011;64157;50.138;14.544;2022-10-16T12:35:43;2.17;;;1.38;;
75576;SDS011;64157;50.138;14.544;2022-10-16T12:38:15;3.67;;;1.42;;
75576;SDS011;64157;50.138;14.544;2022-10-16T12:40:44;2.65;;;1.70;;
75576;SDS011;64157;50.138;14.544;2022-10-16T12:43:26;2.58;;;1.50;;
75576;SDS011;64157;50.138;14.544;2022-10-16T12:46:38;1.45;;;1.33;;
75576;SDS011;64157;50.138;14.544;2022-10-16T12:48:44;1.73;;;1.63;;
75576;SDS011;64157;50.138;14.544;2022-10-16T12:53:45;2.10;;;1.60;;
75576;SDS011;64157;50.138;14.544;2022-10-16T12:59:04;1.90;;;1.30;;
75576;SDS011;64157;50.138;14.544;2022-10-16T13:04:22;2.95;;;1.35;;
75576;SDS011;64157;50.138;14.544;2022-10-16T13:06:55;1.73;;;1.50;;
75576;SDS011;64157;50.138;14.544;2022-10-16T13:09:31;4.18;;;1.30;;
75576;SDS011;64157;50.138;14.544;2022-10-16T13:17:53;5.05;;;1.48;;
75576;SDS011;64157;50.138;14.544;2022-10-16T13:28:28;1.63;;;1.52;;
75576;SDS011;64157;50.138;14.544;2022-10-16T13:30:58;3.13;;;1.37;;
75576;SDS011;64157;50.138;14.544;2022-10-16T13:35:57;2.35;;;1.10;;
75576;SDS011;64157;50.138;14.544;2022-10-16T13:38:24;1.40;;;1.30;;
75576;SDS011;64157;50.138;14.544;2022-10-16T13:40:56;2.47;;;1.20;;
75576;SDS011;64157;50.138;14.544;2022-10-16T13:43:41;1.63;;;1.50;;
75576;SDS011;64157;50.138;14.544;2022-10-16T13:48:38;3.65;;;1.58;;
75576;SDS011;64157;50.138;14.544;2022-10-16T13:51:11;3.63;;;1.73;;
75576;SDS011;64157;50.138;14.544;2022-10-16T13:53:39;2.50;;;1.38;;
75576;SDS011;64157;50.138;14.544;2022-10-16T13:56:07;1.70;;;1.60;;
75576;SDS011;64157;50.138;14.544;2022-10-16T13:58:36;2.08;;;1.40;;
75576;SDS011;64157;50.138;14.544;2022-10-16T14:01:06;1.70;;;1.60;;
75576;SDS011;64157;50.138;14.544;2022-10-16T14:03:48;2.13;;;1.50;;
75576;SDS011;64157;50.138;14.544;2022-10-16T14:06:16;3.40;;;1.70;;
75576;SDS011;64157;50.138;14.544;2022-10-16T14:08:48;2.42;;;1.35;;
75576;SDS011;64157;50.138;14.544;2022-10-16T14:11:23;3.58;;;1.75;;
75576;SDS011;64157;50.138;14.544;2022-10-16T14:13:50;4.20;;;1.80;;
75576;SDS011;64157;50.138;14.544;2022-10-16T14:16:17;2.05;;;1.33;;
75576;SDS011;64157;50.138;14.544;2022-10-16T14:19:01;4.80;;;1.60;;
75576;SDS011;64157;50.138;14.544;2022-10-16T14:21:30;2.75;;;1.70;;
75576;SDS011;64157;50.138;14.544;2022-10-16T14:23:57;2.13;;;1.42;;
75576;SDS011;64157;50.138;14.544;2022-10-16T14:26:23;2.88;;;1.67;;
75576;SDS011;64157;50.138;14.544;2022-10-16T14:29:01;1.60;;;1.50;;
75576;SDS011;64157;50.138;14.544;2022-10-16T14:31:35;1.98;;;1.58;;
75576;SDS011;64157;50.138;14.544;2022-10-16T14:34:02;2.88;;;1.60;;
75576;SDS011;64157;50.138;14.544;2022-10-16T14:36:28;5.18;;;1.83;;
75576;SDS011;64157;50.138;14.544;2022-10-16T14:39:02;2.92;;;1.63;;
75576;SDS011;64157;50.138;14.544;2022-10-16T14:41:31;1.67;;;1.55;;
75576;SDS011;64157;50.138;14.544;2022-10-16T14:44:02;2.78;;;1.27;;
75576;SDS011;64157;50.138;14.544;2022-10-16T14:46:33;2.55;;;1.73;;
75576;SDS011;64157;50.138;14.544;2022-10-16T14:49:12;5.82;;;2.20;;
75576;SDS011;64157;50.138;14.544;2022-10-16T14:51:46;6.18;;;2.22;;
75576;SDS011;64157;50.138;14.544;2022-10-16T14:54:12;3.83;;;2.55;;
75576;SDS011;64157;50.138;14.544;2022-10-16T14:59:19;3.20;;;2.08;;
75576;SDS011;64157;50.138;14.544;2022-10-16T15:01:50;3.05;;;1.70;;
75576;SDS011;64157;50.138;14.544;2022-10-16T15:04:16;3.03;;;1.98;;
75576;SDS011;64157;50.138;14.544;2022-10-16T15:06:42;3.20;;;1.83;;
75576;SDS011;64157;50.138;14.544;2022-10-16T15:09:08;3.35;;;2.22;;
75576;SDS011;64157;50.138;14.544;2022-10-16T15:11:33;2.42;;;1.80;;
75576;SDS011;64157;50.138;14.544;2022-10-16T15:13:59;4.00;;;1.95;;
75576;SDS011;64157;50.138;14.544;2022-10-16T15:16:24;3.42;;;1.70;;
75576;SDS011;64157;50.138;14.544;2022-10-16T15:18:50;2.50;;;1.50;;
75576;SDS011;64157;50.138;14.544;2022-10-16T15:21:33;6.78;;;1.75;;
75576;SDS011;64157;50.138;14.544;2022-10-16T15:23:59;3.60;;;1.73;;
75576;SDS011;64157;50.138;14.544;2022-10-16T15:26:26;3.17;;;1.80;;
75576;SDS011;64157;50.138;14.544;2022-10-16T15:28:53;3.75;;;1.90;;
75576;SDS011;64157;50.138;14.544;2022-10-16T15:31:18;7.13;;;1.83;;
75576;SDS011;64157;50.138;14.544;2022-10-16T15:33:44;2.58;;;1.80;;
75576;SDS011;64157;50.138;14.544;2022-10-16T15:36:16;5.50;;;1.90;;
75576;SDS011;64157;50.138;14.544;2022-10-16T15:38:41;2.72;;;2.15;;
75576;SDS011;64157;50.138;14.544;2022-10-16T15:41:07;3.95;;;2.13;;
75576;SDS011;64157;50.138;14.544;2022-10-16T15:43:32;1.98;;;1.88;;
75576;SDS011;64157;50.138;14.544;2022-10-16T15:46:06;5.40;;;2.60;;
75576;SDS011;64157;50.138;14.544;2022-10-16T15:48:35;5.32;;;2.60;;
75576;SDS011;64157;50.138;14.544;2022-10-16T15:51:04;4.45;;;2.53;;
75576;SDS011;64157;50.138;14.544;2022-10-16T15:53:33;4.60;;;2.50;;
75576;SDS011;64157;50.138;14.544;2022-10-16T15:56:05;6.47;;;2.90;;
75576;SDS011;64157;50.138;14.544;2022-10-16T15:58:32;4.38;;;2.85;;
75576;SDS011;64157;50.138;14.544;2022-10-16T16:01:00;3.28;;;2.95;;
75576;SDS011;64157;50.138;14.544;2022-10-16T16:03:26;6.10;;;3.08;;
75576;SDS011;64157;50.138;14.544;2022-10-16T16:05:53;4.53;;;2.80;;
75576;SDS011;64157;50.138;14.544;2022-10-16T16:08:18;5.45;;;2.78;;
75576;SDS011;64157;50.138;14.544;2022-10-16T16:10:44;5.35;;;3.50;;
75576;SDS011;64157;50.138;14.544;2022-10-16T16:13:09;5.93;;;3.08;;
75576;SDS011;64157;50.138;14.544;2022-10-16T16:15:38;4.50;;;2.92;;
75576;SDS011;64157;50.138;14.544;2022-10-16T16:18:04;4.47;;;3.25;;
75576;SDS011;64157;50.138;14.544;2022-10-16T16:20:30;5.03;;;3.42;;
75576;SDS011;64157;50.138;14.544;2022-10-16T16:22:56;5.95;;;3.63;;
75576;SDS011;64157;50.138;14.544;2022-10-16T16:25:22;5.07;;;3.40;;
75576;SDS011;64157;50.138;14.544;2022-10-16T16:27:47;9.13;;;3.75;;
75576;SDS011;64157;50.138;14.544;2022-10-16T16:30:13;7.22;;;4.25;;
75576;SDS011;64157;50.138;14.544;2022-10-16T16:32:38;9.45;;;4.68;;
75576;SDS011;64157;50.138;14.544;2022-10-16T16:35:04;6.78;;;4.30;;
75576;SDS011;64157;50.138;14.544;2022-10-16T16:37:30;6.43;;;4.50;;
75576;SDS011;64157;50.138;14.544;2022-10-16T16:39:56;10.30;;;4.43;;
75576;SDS011;64157;50.138;14.544;2022-10-16T16:42:24;7.05;;;4.80;;
75576;SDS011;64157;50.138;14.544;2022-10-16T16:44:50;12.68;;;6.50;;
75576;SDS011;64157;50.138;14.544;2022-10-16T16:47:16;13.68;;;7.25;;
75576;SDS011;64157;50.138;14.544;2022-10-16T16:49:41;9.70;;;6.20;;
75576;SDS011;64157;50.138;14.544;2022-10-16T16:52:07;10.27;;;6.95;;
75576;SDS011;64157;50.138;14.544;2022-10-16T16:54:32;12.98;;;9.55;;
75576;SDS011;64157;50.138;14.544;2022-10-16T16:56:58;15.25;;;12.02;;
75576;SDS011;64157;50.138;14.544;2022-10-16T16:59:23;13.00;;;10.73;;
75576;SDS011;64157;50.138;14.544;2022-10-16T17:01:49;13.45;;;10.93;;
75576;SDS011;64157;50.138;14.544;2022-10-16T17:04:15;17.58;;;12.95;;
75576;SDS011;64157;50.138;14.544;2022-10-16T17:06:43;31.48;;;19.23;;
75576;SDS011;64157;50.138;14.544;2022-10-16T17:09:09;24.10;;;16.92;;
75576;SDS011;64157;50.138;14.544;2022-10-16T17:11:38;13.27;;;8.95;;
75576;SDS011;64157;50.138;14.544;2022-10-16T17:14:06;24.85;;;11.70;;
75576;SDS011;64157;50.138;14.544;2022-10-16T17:16:34;18.73;;;9.25;;
75576;SDS011;64157;50.138;14.544;2022-10-16T17:19:04;12.88;;;8.70;;
75576;SDS011;64157;50.138;14.544;2022-10-16T17:21:35;20.48;;;11.35;;
75576;SDS011;64157;50.138;14.544;2022-10-16T17:24:01;11.57;;;7.07;;
75576;SDS011;64157;50.138;14.544;2022-10-16T17:26:27;9.13;;;7.43;;
75576;SDS011;64157;50.138;14.544;2022-10-16T17:28:55;14.15;;;8.40;;
75576;SDS011;64157;50.138;14.544;2022-10-16T17:31:24;14.60;;;10.13;;
75576;SDS011;64157;50.138;14.544;2022-10-16T17:33:51;11.82;;;8.48;;
75576;SDS011;64157;50.138;14.544;2022-10-16T17:36:17;11.73;;;7.28;;
75576;SDS011;64157;50.138;14.544;2022-10-16T17:38:44;9.23;;;5.95;;
75576;SDS011;64157;50.138;14.544;2022-10-16T17:41:11;5.68;;;4.00;;
75576;SDS011;64157;50.138;14.544;2022-10-16T17:43:38;4.50;;;3.13;;
75576;SDS011;64157;50.138;14.544;2022-10-16T17:46:04;4.03;;;2.88;;
75576;SDS011;64157;50.138;14.544;2022-10-16T17:48:30;5.10;;;3.70;;
75576;SDS011;64157;50.138;14.544;2022-10-16T17:50:56;4.93;;;3.40;;
75576;SDS011;64157;50.138;14.544;2022-10-16T17:53:21;5.15;;;3.13;;
75576;SDS011;64157;50.138;14.544;2022-10-16T17:55:47;3.47;;;3.03;;
75576;SDS011;64157;50.138;14.544;2022-10-16T17:58:12;6.88;;;3.20;;
75576;SDS011;64157;50.138;14.544;2022-10-16T18:00:37;5.50;;;3.13;;
75576;SDS011;64157;50.138;14.544;2022-10-16T18:03:03;5.40;;;3.28;;
75576;SDS011;64157;50.138;14.544;2022-10-16T18:05:28;4.20;;;3.30;;
75576;SDS011;64157;50.138;14.544;2022-10-16T18:07:54;5.63;;;4.18;;
75576;SDS011;64157;50.138;14.544;2022-10-16T18:10:19;10.73;;;5.35;;
75576;SDS011;64157;50.138;14.544;2022-10-16T18:12:45;7.25;;;5.28;;
75576;SDS011;64157;50.138;14.544;2022-10-16T18:15:11;8.00;;;4.82;;
75576;SDS011;64157;50.138;14.544;2022-10-16T18:17:36;9.48;;;4.63;;
75576;SDS011;64157;50.138;14.544;2022-10-16T18:20:03;7.68;;;5.00;;
75576;SDS011;64157;50.138;14.544;2022-10-16T18:22:31;7.20;;;4.75;;
75576;SDS011;64157;50.138;14.544;2022-10-16T18:24:59;6.22;;;4.63;;
75576;SDS011;64157;50.138;14.544;2022-10-16T18:27:28;6.35;;;4.00;;
75576;SDS011;64157;50.138;14.544;2022-10-16T18:29:54;4.82;;;4.28;;
75576;SDS011;64157;50.138;14.544;2022-10-16T18:32:21;5.88;;;4.50;;
75576;SDS011;64157;50.138;14.544;2022-10-16T18:34:51;5.95;;;3.58;;
75576;SDS011;64157;50.138;14.544;2022-10-16T18:37:18;6.80;;;4.15;;
75576;SDS011;64157;50.138;14.544;2022-10-16T18:39:47;5.93;;;3.92;;
75576;SDS011;64157;50.138;14.544;2022-10-16T18:42:13;5.55;;;3.97;;
75576;SDS011;64157;50.138;14.544;2022-10-16T18:44:39;5.95;;;4.28;;
75576;SDS011;64157;50.138;14.544;2022-10-16T18:47:05;7.13;;;4.53;;
75576;SDS011;64157;50.138;14.544;2022-10-16T18:49:30;8.65;;;4.90;;
75576;SDS011;64157;50.138;14.544;2022-10-16T18:51:56;7.65;;;4.38;;
75576;SDS011;64157;50.138;14.544;2022-10-16T18:54:22;6.43;;;4.63;;
75576;SDS011;64157;50.138;14.544;2022-10-16T18:56:50;8.07;;;4.97;;
75576;SDS011;64157;50.138;14.544;2022-10-16T18:59:16;8.88;;;5.72;;
75576;SDS011;64157;50.138;14.544;2022-10-16T19:01:41;13.82;;;6.13;;
75576;SDS011;64157;50.138;14.544;2022-10-16T19:04:11;7.03;;;4.95;;
75576;SDS011;64157;50.138;14.544;2022-10-16T19:06:39;8.07;;;5.32;;
75576;SDS011;64157;50.138;14.544;2022-10-16T19:09:07;12.07;;;6.10;;
75576;SDS011;64157;50.138;14.544;2022-10-16T19:11:33;7.38;;;5.25;;
75576;SDS011;64157;50.138;14.544;2022-10-16T19:13:59;7.82;;;5.47;;
75576;SDS011;64157;50.138;14.544;2022-10-16T19:16:27;8.52;;;5.05;;
75576;SDS011;64157;50.138;14.544;2022-10-16T19:18:55;8.18;;;5.07;;
75576;SDS011;64157;50.138;14.544;2022-10-16T19:21:23;7.25;;;5.00;;
75576;SDS011;64157;50.138;14.544;2022-10-16T19:23:50;11.77;;;5.35;;
75576;SDS011;64157;50.138;14.544;2022-10-16T19:26:17;7.80;;;4.90;;
75576;SDS011;64157;50.138;14.544;2022-10-16T19:28:43;9.55;;;6.10;;
75576;SDS011;64157;50.138;14.544;2022-10-16T19:31:19;9.65;;;5.25;;
75576;SDS011;64157;50.138;14.544;2022-10-16T19:33:46;8.55;;;5.28;;
75576;SDS011;64157;50.138;14.544;2022-10-16T19:36:19;7.07;;;5.32;;
75576;SDS011;64157;50.138;14.544;2022-10-16T19:39:31;7.88;;;5.25;;
75576;SDS011;64157;50.138;14.544;2022-10-16T19:41:38;7.55;;;5.55;;
75576;SDS011;64157;50.138;14.544;2022-10-16T19:44:06;10.73;;;5.53;;
75576;SDS011;64157;50.138;14.544;2022-10-16T19:46:33;8.55;;;5.88;;
75576;SDS011;64157;50.138;14.544;2022-10-16T19:49:00;9.30;;;5.25;;
75576;SDS011;64157;50.138;14.544;2022-10-16T19:51:29;9.05;;;6.03;;
75576;SDS011;64157;50.138;14.544;2022-10-16T19:53:56;6.60;;;5.43;;
75576;SDS011;64157;50.138;14.544;2022-10-16T19:56:26;10.20;;;5.40;;
75576;SDS011;64157;50.138;14.544;2022-10-16T19:58:54;12.18;;;6.68;;
75576;SDS011;64157;50.138;14.544;2022-10-16T20:01:20;10.90;;;6.60;;
75576;SDS011;64157;50.138;14.544;2022-10-16T20:03:47;12.80;;;6.93;;
75576;SDS011;64157;50.138;14.544;2022-10-16T20:06:14;9.43;;;6.82;;
75576;SDS011;64157;50.138;14.544;2022-10-16T20:08:40;17.55;;;6.85;;
75576;SDS011;64157;50.138;14.544;2022-10-16T20:11:11;10.60;;;6.93;;
75576;SDS011;64157;50.138;14.544;2022-10-16T20:13:38;8.95;;;6.57;;
75576;SDS011;64157;50.138;14.544;2022-10-16T20:16:04;9.02;;;6.85;;
75576;SDS011;64157;50.138;14.544;2022-10-16T20:18:30;11.65;;;7.43;;
75576;SDS011;64157;50.138;14.544;2022-10-16T20:20:58;13.77;;;7.32;;
75576;SDS011;64157;50.138;14.544;2022-10-16T20:23:23;11.40;;;6.80;;
75576;SDS011;64157;50.138;14.544;2022-10-16T20:25:49;12.63;;;7.43;;
75576;SDS011;64157;50.138;14.544;2022-10-16T20:28:19;11.60;;;7.10;;
75576;SDS011;64157;50.138;14.544;2022-10-16T20:30:46;13.13;;;7.50;;
75576;SDS011;64157;50.138;14.544;2022-10-16T20:33:14;9.63;;;7.72;;
75576;SDS011;64157;50.138;14.544;2022-10-16T20:35:41;14.55;;;9.93;;
75576;SDS011;64157;50.138;14.544;2022-10-16T20:38:07;17.75;;;12.50;;
75576;SDS011;64157;50.138;14.544;2022-10-16T20:40:34;20.38;;;13.32;;
75576;SDS011;64157;50.138;14.544;2022-10-16T20:43:01;17.80;;;12.48;;
75576;SDS011;64157;50.138;14.544;2022-10-16T20:45:27;15.25;;;9.50;;
75576;SDS011;64157;50.138;14.544;2022-10-16T20:47:52;15.32;;;9.68;;
75576;SDS011;64157;50.138;14.544;2022-10-16T20:50:18;13.48;;;8.50;;
75576;SDS011;64157;50.138;14.544;2022-10-16T20:52:43;13.57;;;9.45;;
75576;SDS011;64157;50.138;14.544;2022-10-16T20:55:09;15.43;;;7.95;;
75576;SDS011;64157;50.138;14.544;2022-10-16T20:57:34;14.15;;;9.48;;
75576;SDS011;64157;50.138;14.544;2022-10-16T21:00:00;13.05;;;9.32;;
75576;SDS011;64157;50.138;14.544;2022-10-16T21:02:26;15.70;;;8.70;;
75576;SDS011;64157;50.138;14.544;2022-10-16T21:04:51;15.18;;;8.48;;
75576;SDS011;64157;50.138;14.544;2022-10-16T21:07:17;12.45;;;8.43;;
75576;SDS011;64157;50.138;14.544;2022-10-16T21:09:42;14.45;;;8.65;;
75576;SDS011;64157;50.138;14.544;2022-10-16T21:12:08;14.18;;;9.27;;
75576;SDS011;64157;50.138;14.544;2022-10-16T21:14:34;16.67;;;9.93;;
75576;SDS011;64157;50.138;14.544;2022-10-16T21:16:59;15.50;;;9.27;;
75576;SDS011;64157;50.138;14.544;2022-10-16T21:19:28;13.25;;;8.77;;
75576;SDS011;64157;50.138;14.544;2022-10-16T21:21:54;15.95;;;9.25;;
75576;SDS011;64157;50.138;14.544;2022-10-16T21:24:20;16.02;;;8.98;;
75576;SDS011;64157;50.138;14.544;2022-10-16T21:26:45;15.65;;;9.15;;
75576;SDS011;64157;50.138;14.544;2022-10-16T21:29:11;15.27;;;9.05;;
75576;SDS011;64157;50.138;14.544;2022-10-16T21:31:37;14.00;;;9.32;;
75576;SDS011;64157;50.138;14.544;2022-10-16T21:34:02;15.93;;;10.00;;
75576;SDS011;64157;50.138;14.544;2022-10-16T21:36:29;14.95;;;10.10;;
75576;SDS011;64157;50.138;14.544;2022-10-16T21:39:01;14.80;;;9.38;;
75576;SDS011;64157;50.138;14.544;2022-10-16T21:41:28;15.43;;;9.25;;
75576;SDS011;64157;50.138;14.544;2022-10-16T21:43:54;13.05;;;8.80;;
75576;SDS011;64157;50.138;14.544;2022-10-16T21:46:21;15.23;;;10.05;;
75576;SDS011;64157;50.138;14.544;2022-10-16T21:48:51;14.95;;;9.35;;
75576;SDS011;64157;50.138;14.544;2022-10-16T21:51:17;14.15;;;9.63;;
75576;SDS011;64157;50.138;14.544;2022-10-16T21:53:42;15.02;;;9.75;;
75576;SDS011;64157;50.138;14.544;2022-10-16T21:56:11;17.85;;;10.48;;
75576;SDS011;64157;50.138;14.544;2022-10-16T21:58:38;16.25;;;10.18;;
75576;SDS011;64157;50.138;14.544;2022-10-16T22:01:07;15.07;;;9.82;;
75576;SDS011;64157;50.138;14.544;2022-10-16T22:03:33;14.52;;;9.65;;
75576;SDS011;64157;50.138;14.544;2022-10-16T22:05:59;15.68;;;8.88;;
75576;SDS011;64157;50.138;14.544;2022-10-16T22:08:26;13.05;;;8.90;;
75576;SDS011;64157;50.138;14.544;2022-10-16T22:10:52;12.52;;;8.32;;
75576;SDS011;64157;50.138;14.544;2022-10-16T22:13:17;18.95;;;9.48;;
75576;SDS011;64157;50.138;14.544;2022-10-16T22:15:49;13.77;;;9.50;;
75576;SDS011;64157;50.138;14.544;2022-10-16T22:18:20;14.85;;;10.32;;
75576;SDS011;64157;50.138;14.544;2022-10-16T22:20:45;13.57;;;8.75;;
75576;SDS011;64157;50.138;14.544;2022-10-16T22:23:12;14.75;;;9.02;;
75576;SDS011;64157;50.138;14.544;2022-10-16T22:25:38;14.93;;;9.60;;
75576;SDS011;64157;50.138;14.544;2022-10-16T22:28:03;14.55;;;10.25;;
75576;SDS011;64157;50.138;14.544;2022-10-16T22:30:29;15.38;;;9.90;;
75576;SDS011;64157;50.138;14.544;2022-10-16T22:32:54;12.82;;;9.23;;
75576;SDS011;64157;50.138;14.544;2022-10-16T22:35:19;13.50;;;9.63;;
75576;SDS011;64157;50.138;14.544;2022-10-16T22:37:45;14.85;;;10.73;;
75576;SDS011;64157;50.138;14.544;2022-10-16T22:40:10;15.60;;;10.45;;
75576;SDS011;64157;50.138;14.544;2022-10-16T22:42:36;14.15;;;9.88;;
75576;SDS011;64157;50.138;14.544;2022-10-16T22:45:02;18.40;;;11.23;;
75576;SDS011;64157;50.138;14.544;2022-10-16T22:47:27;18.73;;;10.60;;
75576;SDS011;64157;50.138;14.544;2022-10-16T22:49:53;17.52;;;10.18;;
75576;SDS011;64157;50.138;14.544;2022-10-16T22:52:18;16.55;;;11.15;;
75576;SDS011;64157;50.138;14.544;2022-10-16T22:54:44;15.30;;;10.38;;
75576;SDS011;64157;50.138;14.544;2022-10-16T22:57:09;14.90;;;10.60;;
75576;SDS011;64157;50.138;14.544;2022-10-16T22:59:35;17.67;;;11.32;;
75576;SDS011;64157;50.138;14.544;2022-10-16T23:02:00;17.70;;;11.00;;
75576;SDS011;64157;50.138;14.544;2022-10-16T23:04:25;16.33;;;11.32;;
75576;SDS011;64157;50.138;14.544;2022-10-16T23:06:51;16.48;;;11.40;;
75576;SDS011;64157;50.138;14.544;2022-10-16T23:09:16;18.52;;;12.00;;
75576;SDS011;64157;50.138;14.544;2022-10-16T23:11:42;21.85;;;12.93;;
75576;SDS011;64157;50.138;14.544;2022-10-16T23:14:07;21.65;;;13.27;;
75576;SDS011;64157;50.138;14.544;2022-10-16T23:16:33;20.63;;;13.02;;
75576;SDS011;64157;50.138;14.544;2022-10-16T23:18:58;18.73;;;12.13;;
75576;SDS011;64157;50.138;14.544;2022-10-16T23:21:24;20.25;;;13.73;;
75576;SDS011;64157;50.138;14.544;2022-10-16T23:23:51;22.30;;;13.35;;
75576;SDS011;64157;50.138;14.544;2022-10-16T23:26:19;27.38;;;15.07;;
75576;SDS011;64157;50.138;14.544;2022-10-16T23:28:45;29.08;;;16.98;;
75576;SDS011;64157;50.138;14.544;2022-10-16T23:31:12;26.52;;;15.25;;
75576;SDS011;64157;50.138;14.544;2022-10-16T23:33:38;27.80;;;14.93;;
75576;SDS011;64157;50.138;14.544;2022-10-16T23:36:15;30.35;;;16.13;;
75576;SDS011;64157;50.138;14.544;2022-10-16T23:38:44;25.70;;;14.63;;
75576;SDS011;64157;50.138;14.544;2022-10-16T23:41:11;23.15;;;14.60;;
75576;SDS011;64157;50.138;14.544;2022-10-16T23:43:37;26.98;;;14.45;;
75576;SDS011;64157;50.138;14.544;2022-10-16T23:46:04;22.95;;;14.15;;
75576;SDS011;64157;50.138;14.544;2022-10-16T23:48:30;21.77;;;12.98;;
75576;SDS011;64157;50.138;14.544;2022-10-16T23:50:55;25.30;;;14.25;;
75576;SDS011;64157;50.138;14.544;2022-10-16T23:53:21;26.88;;;14.50;;
75576;SDS011;64157;50.138;14.544;2022-10-16T23:55:47;27.92;;;15.93;;
75576;SDS011;64157;50.138;14.544;2022-10-16T23:58:12;30.92;;;16.23;;
